Time;durP1;ratioP1;P1;durP2;ratioP2;P2;SDS_P1;SDS_P2;PMS_P1;PMS_P2;Temp;Humidity;BMP_temperature;BMP_pressure;BME280_temperature;BME280_humidity;BME280_pressure;Samples;Min_cycle;Max_cycle;Signal;HPM_P1;HPM_P2
2021/11/24 00:00:47;;;;;;;0.50;0.50;;;;;;;;;;5064713;28;20782;-86
2021/11/24 00:03:13;;;;;;;0.38;0.38;;;;;;;;;;5058174;28;20041;-85
2021/11/24 00:05:39;;;;;;;0.40;0.40;;;;;;;;;;5061662;28;20024;-86
2021/11/24 00:08:06;;;;;;;0.73;0.73;;;;;;;;;;5071818;28;20036;-85
2021/11/24 00:10:34;;;;;;;0.30;0.30;;;;;;;;;;5061855;28;20111;-86
2021/11/24 00:13:00;;;;;;;0.40;0.40;;;;;;;;;;5060013;28;20598;-85
2021/11/24 00:15:26;;;;;;;0.40;0.40;;;;;;;;;;5063670;28;20412;-85
2021/11/24 00:17:52;;;;;;;0.40;0.40;;;;;;;;;;5063119;28;20024;-84
2021/11/24 00:20:18;;;;;;;0.40;0.40;;;;;;;;;;5061553;28;20047;-86
2021/11/24 00:22:44;;;;;;;0.65;0.65;;;;;;;;;;5061968;28;20604;-85
2021/11/24 00:25:11;;;;;;;0.40;0.40;;;;;;;;;;5060281;28;20075;-86
2021/11/24 00:27:37;;;;;;;0.30;0.30;;;;;;;;;;5054391;28;20524;-86
2021/11/24 00:30:05;;;;;;;0.30;0.30;;;;;;;;;;5065010;28;20021;-85
2021/11/24 00:32:31;;;;;;;0.30;0.30;;;;;;;;;;5076811;28;20067;-85
2021/11/24 00:34:57;;;;;;;0.20;0.20;;;;;;;;;;5061413;28;20032;-85
2021/11/24 00:37:23;;;;;;;0.30;0.30;;;;;;;;;;5065059;28;20044;-86
2021/11/24 00:39:49;;;;;;;0.77;0.77;;;;;;;;;;5062384;28;20020;-85
2021/11/24 00:42:16;;;;;;;0.40;0.40;;;;;;;;;;5063405;28;20118;-85
2021/11/24 00:44:42;;;;;;;0.43;0.43;;;;;;;;;;5060729;28;20051;-85
2021/11/24 00:47:08;;;;;;;0.50;0.50;;;;;;;;;;5057808;28;20408;-85
2021/11/24 00:49:35;;;;;;;0.40;0.40;;;;;;;;;;5064160;28;20024;-85
2021/11/24 00:52:01;;;;;;;0.40;0.40;;;;;;;;;;5059584;28;20033;-86
2021/11/24 00:54:27;;;;;;;0.95;0.95;;;;;;;;;;5065317;28;20039;-85
2021/11/24 00:56:53;;;;;;;0.40;0.40;;;;;;;;;;5066725;28;20032;-86
2021/11/24 00:59:19;;;;;;;0.50;0.50;;;;;;;;;;5064256;28;20074;-85
2021/11/24 01:01:45;;;;;;;0.30;0.30;;;;;;;;;;5061580;28;20095;-85
2021/11/24 01:04:11;;;;;;;0.40;0.40;;;;;;;;;;5058997;28;20638;-85
2021/11/24 01:06:37;;;;;;;0.40;0.40;;;;;;;;;;5061748;28;20055;-85
2021/11/24 01:09:03;;;;;;;0.40;0.40;;;;;;;;;;5064058;28;20450;-85
2021/11/24 01:11:30;;;;;;;0.40;0.40;;;;;;;;;;5064288;28;20028;-86
2021/11/24 01:13:56;;;;;;;0.52;0.52;;;;;;;;;;5052068;28;20034;-86
2021/11/24 01:16:22;;;;;;;0.50;0.50;;;;;;;;;;5055920;28;20028;-86
2021/11/24 01:18:48;;;;;;;0.50;0.50;;;;;;;;;;5060889;28;20033;-86
2021/11/24 01:21:14;;;;;;;0.45;0.45;;;;;;;;;;5060058;28;20051;-86
2021/11/24 01:23:40;;;;;;;0.47;0.47;;;;;;;;;;5059675;28;20043;-86
2021/11/24 01:26:06;;;;;;;0.47;0.47;;;;;;;;;;5061653;28;20405;-85
2021/11/24 01:28:32;;;;;;;0.57;0.57;;;;;;;;;;5068444;28;20033;-86
2021/11/24 01:30:58;;;;;;;0.30;0.30;;;;;;;;;;5060416;28;20036;-85
2021/11/24 01:33:24;;;;;;;0.30;0.30;;;;;;;;;;5062954;28;20113;-86
2021/11/24 01:35:51;;;;;;;0.40;0.40;;;;;;;;;;5068797;28;20052;-85
2021/11/24 01:38:17;;;;;;;0.35;0.35;;;;;;;;;;5063894;28;20201;-84
2021/11/24 01:40:43;;;;;;;0.40;0.40;;;;;;;;;;5063658;28;20429;-85
2021/11/24 01:43:09;;;;;;;0.40;0.40;;;;;;;;;;5062351;28;20032;-85
2021/11/24 01:45:36;;;;;;;0.40;0.40;;;;;;;;;;5056175;28;20412;-86
2021/11/24 01:48:03;;;;;;;0.40;0.40;;;;;;;;;;5070705;28;20084;-84
2021/11/24 01:50:29;;;;;;;0.30;0.30;;;;;;;;;;5066082;28;20165;-84
2021/11/24 01:52:55;;;;;;;0.40;0.40;;;;;;;;;;5059016;28;20044;-84
2021/11/24 01:55:21;;;;;;;0.50;0.50;;;;;;;;;;5066510;28;20032;-84
2021/11/24 01:57:49;;;;;;;0.30;0.30;;;;;;;;;;5066210;28;20048;-85
2021/11/24 02:00:20;;;;;;;0.32;0.32;;;;;;;;;;5065704;28;20029;-84
2021/11/24 02:02:46;;;;;;;0.40;0.40;;;;;;;;;;5064620;28;20028;-84
2021/11/24 02:05:12;;;;;;;0.40;0.40;;;;;;;;;;5059800;28;20390;-84
2021/11/24 02:07:38;;;;;;;0.40;0.40;;;;;;;;;;5066899;28;20076;-85
2021/11/24 02:10:04;;;;;;;0.57;0.57;;;;;;;;;;5064600;28;20029;-84
2021/11/24 02:12:30;;;;;;;0.45;0.45;;;;;;;;;;5068228;28;20040;-85
2021/11/24 02:14:57;;;;;;;0.40;0.40;;;;;;;;;;5064307;28;20580;-84
2021/11/24 02:17:23;;;;;;;0.40;0.40;;;;;;;;;;5050956;28;20028;-85
2021/11/24 02:19:49;;;;;;;0.50;0.50;;;;;;;;;;5060999;28;20268;-85
2021/11/24 02:22:15;;;;;;;0.40;0.40;;;;;;;;;;5061695;28;20036;-84
2021/11/24 02:24:41;;;;;;;0.30;0.30;;;;;;;;;;5061777;28;20044;-85
2021/11/24 02:27:09;;;;;;;0.40;0.40;;;;;;;;;;5064822;28;20136;-83
2021/11/24 02:29:35;;;;;;;0.40;0.40;;;;;;;;;;5064954;28;20383;-85
2021/11/24 02:32:02;;;;;;;0.57;0.57;;;;;;;;;;5056648;28;20025;-85
2021/11/24 02:34:29;;;;;;;0.73;0.73;;;;;;;;;;5061760;28;20130;-85
2021/11/24 02:36:56;;;;;;;0.40;0.40;;;;;;;;;;5061214;28;20472;-85
2021/11/24 02:39:22;;;;;;;0.60;0.60;;;;;;;;;;5065992;28;20490;-84
2021/11/24 02:41:48;;;;;;;0.50;0.50;;;;;;;;;;5065785;28;20086;-85
2021/11/24 02:44:15;;;;;;;1.08;1.08;;;;;;;;;;5059087;28;20730;-84
2021/11/24 02:46:41;;;;;;;;;;;;;;;;;;5065398;28;20564;-84
2021/11/24 02:49:07;;;;;;;0.70;0.70;;;;;;;;;;5067604;28;19916;-85
2021/11/24 02:51:33;;;;;;;0.70;0.70;;;;;;;;;;5061463;28;20368;-85
2021/11/24 02:53:59;;;;;;;0.60;0.60;;;;;;;;;;5063773;28;20028;-85
2021/11/24 02:56:25;;;;;;;0.60;0.60;;;;;;;;;;5065281;28;20119;-85
2021/11/24 02:58:51;;;;;;;0.40;0.40;;;;;;;;;;5061015;28;20136;-84
2021/11/24 03:01:17;;;;;;;0.40;0.40;;;;;;;;;;5063708;28;20115;-84
2021/11/24 03:03:43;;;;;;;0.60;0.60;;;;;;;;;;5065941;28;20036;-85
2021/11/24 03:06:09;;;;;;;0.40;0.40;;;;;;;;;;5060593;28;20028;-85
2021/11/24 03:08:35;;;;;;;0.30;0.30;;;;;;;;;;5056067;28;20043;-86
2021/11/24 03:11:01;;;;;;;0.30;0.30;;;;;;;;;;5063621;28;20036;-85
2021/11/24 03:13:27;;;;;;;0.28;0.28;;;;;;;;;;5067614;28;20117;-86
2021/11/24 03:15:53;;;;;;;9.53;9.03;;;;;;;;;;5073766;28;20047;-85
2021/11/24 03:18:19;;;;;;;29.63;27.93;;;;;;;;;;5063370;28;20099;-84
2021/11/24 03:20:45;;;;;;;0.17;0.17;;;;;;;;;;5060352;28;20040;-85
2021/11/24 03:23:11;;;;;;;0.20;0.20;;;;;;;;;;5063456;28;20417;-85
2021/11/24 03:25:37;;;;;;;0.20;0.20;;;;;;;;;;5066010;28;20035;-84
2021/11/24 03:28:05;;;;;;;0.30;0.30;;;;;;;;;;5067131;28;20633;-86
2021/11/24 03:30:31;;;;;;;0.32;0.32;;;;;;;;;;5064112;28;20024;-84
2021/11/24 03:32:58;;;;;;;0.60;0.60;;;;;;;;;;5054692;28;20079;-86
2021/11/24 03:35:24;;;;;;;;;;;;;;;;;;5054623;28;20020;-85
2021/11/24 03:37:52;;;;;;;0.40;0.40;;;;;;;;;;5055025;28;19919;-83
2021/11/24 03:40:19;;;;;;;0.30;0.30;;;;;;;;;;5062374;28;20036;-85
2021/11/24 03:42:47;;;;;;;0.40;0.40;;;;;;;;;;5053172;28;20047;-85
2021/11/24 03:45:14;;;;;;;1.30;1.30;;;;;;;;;;5065273;28;20048;-85
2021/11/24 03:47:41;;;;;;;0.30;0.30;;;;;;;;;;5062532;28;20033;-84
2021/11/24 03:50:08;;;;;;;0.32;0.32;;;;;;;;;;5061508;28;20033;-84
2021/11/24 03:52:34;;;;;;;0.30;0.30;;;;;;;;;;5063392;28;20040;-86
2021/11/24 03:55:00;;;;;;;0.30;0.30;;;;;;;;;;5058198;28;20097;-85
2021/11/24 03:57:26;;;;;;;0.20;0.20;;;;;;;;;;5065291;28;20046;-85
2021/11/24 03:59:52;;;;;;;0.30;0.30;;;;;;;;;;5061115;28;20485;-87
2021/11/24 04:02:18;;;;;;;0.52;0.52;;;;;;;;;;5060509;28;20037;-86
2021/11/24 04:04:44;;;;;;;0.30;0.30;;;;;;;;;;5065484;28;20077;-85
2021/11/24 04:07:10;;;;;;;0.70;0.70;;;;;;;;;;5063124;28;20090;-85
2021/11/24 04:09:36;;;;;;;0.30;0.30;;;;;;;;;;5060738;28;20029;-85
2021/11/24 04:12:03;;;;;;;0.33;0.33;;;;;;;;;;5060367;28;20494;-84
2021/11/24 04:14:29;;;;;;;0.20;0.20;;;;;;;;;;5058508;28;20028;-84
2021/11/24 04:16:55;;;;;;;0.20;0.20;;;;;;;;;;5055198;28;20028;-85
2021/11/24 04:19:21;;;;;;;0.20;0.20;;;;;;;;;;5065483;28;20568;-85
2021/11/24 04:21:47;;;;;;;1999.90;999.90;;;;;;;;;;5062793;28;20070;-84
2021/11/24 04:24:13;;;;;;;1999.90;999.90;;;;;;;;;;5066156;28;20496;-84
2021/11/24 04:26:39;;;;;;;1999.90;999.90;;;;;;;;;;5061504;28;20055;-84
2021/11/24 04:29:05;;;;;;;1349.63;681.60;;;;;;;;;;5053549;28;20367;-85
2021/11/24 04:31:31;;;;;;;1999.90;999.90;;;;;;;;;;5059049;28;20867;-85
2021/11/24 04:33:57;;;;;;;1999.90;999.90;;;;;;;;;;5063513;28;20036;-84
2021/11/24 04:36:23;;;;;;;33.60;31.83;;;;;;;;;;5062395;28;20515;-83
2021/11/24 04:38:49;;;;;;;1999.90;999.90;;;;;;;;;;5058011;28;20081;-83
2021/11/24 04:41:15;;;;;;;1514.35;761.38;;;;;;;;;;5052876;28;20037;-84
2021/11/24 04:43:44;;;;;;;1999.90;999.90;;;;;;;;;;5058244;28;20596;-85
2021/11/24 04:46:10;;;;;;;94.15;54.35;;;;;;;;;;5060941;28;20623;-84
2021/11/24 04:48:37;;;;;;;49.80;40.97;;;;;;;;;;5063986;28;20038;-85
2021/11/24 04:51:03;;;;;;;0.10;0.10;;;;;;;;;;5061759;28;20043;-84
2021/11/24 04:53:29;;;;;;;0.20;0.20;;;;;;;;;;5060057;28;20031;-84
2021/11/24 04:55:55;;;;;;;0.28;0.28;;;;;;;;;;5052768;28;20059;-83
2021/11/24 04:58:21;;;;;;;0.10;0.10;;;;;;;;;;5065596;28;20086;-84
2021/11/24 05:00:47;;;;;;;0.35;0.35;;;;;;;;;;5061612;28;20024;-84
2021/11/24 05:03:13;;;;;;;0.10;0.10;;;;;;;;;;5058903;28;20086;-85
2021/11/24 05:05:39;;;;;;;0.10;0.10;;;;;;;;;;5062122;28;20408;-85
2021/11/24 05:08:07;;;;;;;0.17;0.17;;;;;;;;;;5063907;28;20036;-84
2021/11/24 05:10:33;;;;;;;0.57;0.20;;;;;;;;;;5065345;28;20515;-84
2021/11/24 05:12:59;;;;;;;0.20;0.20;;;;;;;;;;5058226;28;20029;-84
2021/11/24 05:15:29;;;;;;;0.63;0.20;;;;;;;;;;5058248;28;20036;-83
2021/11/24 05:18:02;;;;;;;0.32;0.32;;;;;;;;;;5058189;28;20033;-83
2021/11/24 05:20:30;;;;;;;1.52;0.63;;;;;;;;;;5058835;28;20500;-84
2021/11/24 05:22:59;;;;;;;0.38;0.35;;;;;;;;;;5060904;28;20497;-83
2021/11/24 05:25:26;;;;;;;0.20;0.20;;;;;;;;;;5069949;28;20421;-84
2021/11/24 05:27:52;;;;;;;0.00;0.00;;;;;;;;;;5062587;28;20619;-84
2021/11/24 05:30:18;;;;;;;1.17;1.07;;;;;;;;;;5061281;28;20047;-84
2021/11/24 05:32:44;;;;;;;0.50;0.30;;;;;;;;;;5055235;28;20281;-84
2021/11/24 05:35:10;;;;;;;0.55;0.55;;;;;;;;;;5062652;28;20097;-83
2021/11/24 05:37:36;;;;;;;0.00;0.00;;;;;;;;;;5055657;28;20033;-84
2021/11/24 05:40:03;;;;;;;0.00;0.00;;;;;;;;;;5063746;28;20501;-85
2021/11/24 05:42:29;;;;;;;0.32;0.32;;;;;;;;;;5062631;28;20099;-89
2021/11/24 05:45:10;;;;;;;0.40;0.40;;;;;;;;;;5062030;28;20509;-88
2021/11/24 05:47:55;;;;;;;0.30;0.30;;;;;;;;;;5063127;28;20044;-88
2021/11/24 05:50:26;;;;;;;1.00;0.98;;;;;;;;;;5053199;28;20028;-88
2021/11/24 05:52:52;;;;;;;1.48;1.38;;;;;;;;;;5063460;28;20031;-87
2021/11/24 05:55:19;;;;;;;0.07;0.07;;;;;;;;;;5062595;28;20598;-90
2021/11/24 05:57:45;;;;;;;0.10;0.10;;;;;;;;;;5062820;28;20036;-89
2021/11/24 06:00:11;;;;;;;0.00;0.00;;;;;;;;;;5066300;28;20044;-87
2021/11/24 06:02:37;;;;;;;0.00;0.00;;;;;;;;;;5058647;28;21190;-87
2021/11/24 06:05:03;;;;;;;0.10;0.10;;;;;;;;;;5057384;28;20102;-87
2021/11/24 06:07:29;;;;;;;0.37;0.37;;;;;;;;;;5064152;28;20041;-88
2021/11/24 06:09:55;;;;;;;1.02;0.95;;;;;;;;;;5056095;28;20279;-88
2021/11/24 06:12:21;;;;;;;0.00;0.00;;;;;;;;;;5056725;28;20028;-88
2021/11/24 06:14:47;;;;;;;0.10;0.10;;;;;;;;;;5061802;28;20025;-89
2021/11/24 06:17:13;;;;;;;0.00;0.00;;;;;;;;;;5060862;28;20035;-87
2021/11/24 06:19:39;;;;;;;0.00;0.00;;;;;;;;;;5060287;28;20127;-87
2021/11/24 06:22:05;;;;;;;0.20;0.20;;;;;;;;;;5063228;28;20070;-89
2021/11/24 06:24:31;;;;;;;0.20;0.20;;;;;;;;;;5061223;28;20516;-88
2021/11/24 06:26:58;;;;;;;0.10;0.10;;;;;;;;;;5071068;28;20036;-90
2021/11/24 06:29:24;;;;;;;0.00;0.00;;;;;;;;;;5061566;28;20037;-89
2021/11/24 06:31:50;;;;;;;0.22;0.22;;;;;;;;;;5061374;28;20633;-91
2021/11/24 06:34:16;;;;;;;0.10;0.10;;;;;;;;;;5058957;28;20031;-88
2021/11/24 06:36:42;;;;;;;0.43;0.43;;;;;;;;;;5056715;28;20071;-89
2021/11/24 06:39:08;;;;;;;0.03;0.03;;;;;;;;;;5055453;28;20112;-85
2021/11/24 06:41:34;;;;;;;0.20;0.20;;;;;;;;;;5067733;28;20627;-84
2021/11/24 06:44:00;;;;;;;0.17;0.17;;;;;;;;;;5063229;28;20049;-88
2021/11/24 06:46:26;;;;;;;3.63;0.55;;;;;;;;;;5071979;28;20119;-86
2021/11/24 06:48:52;;;;;;;0.40;0.40;;;;;;;;;;5069654;28;20177;-85
2021/11/24 06:51:18;;;;;;;0.10;0.10;;;;;;;;;;5070163;28;20595;-87
2021/11/24 06:53:45;;;;;;;0.10;0.10;;;;;;;;;;5074514;28;20035;-84
2021/11/24 06:56:11;;;;;;;0.32;0.10;;;;;;;;;;5065111;28;20033;-83
2021/11/24 06:58:38;;;;;;;1.77;0.43;;;;;;;;;;5068624;28;20036;-84
2021/11/24 07:01:04;;;;;;;0.08;0.08;;;;;;;;;;5081903;28;20376;-88
2021/11/24 07:03:30;;;;;;;0.08;0.08;;;;;;;;;;5073059;28;20056;-88
2021/11/24 07:05:56;;;;;;;0.50;0.50;;;;;;;;;;5070419;28;20028;-89
2021/11/24 07:08:22;;;;;;;0.08;0.08;;;;;;;;;;5067775;28;20032;-90
2021/11/24 07:10:48;;;;;;;0.35;0.20;;;;;;;;;;5066227;28;20042;-88
2021/11/24 07:13:15;;;;;;;0.60;0.60;;;;;;;;;;5066882;28;20120;-87
2021/11/24 07:15:41;;;;;;;0.22;0.22;;;;;;;;;;5076758;28;20417;-87
2021/11/24 07:18:07;;;;;;;1.13;0.22;;;;;;;;;;5071055;28;20028;-89
2021/11/24 07:20:33;;;;;;;1.23;1.03;;;;;;;;;;5081214;28;20056;-88
2021/11/24 07:23:00;;;;;;;0.82;0.82;;;;;;;;;;5061654;28;20469;-89
2021/11/24 07:25:26;;;;;;;0.10;0.10;;;;;;;;;;5070490;28;20181;-86
2021/11/24 07:27:52;;;;;;;0.00;0.00;;;;;;;;;;5067936;28;20100;-86
2021/11/24 07:30:19;;;;;;;5.90;0.88;;;;;;;;;;5068819;28;20794;-86
2021/11/24 07:32:45;;;;;;;;;;;;;;;;;;5065359;28;20611;-86
2021/11/24 07:35:11;;;;;;;0.20;0.20;;;;;;;;;;5072233;28;19969;-86
2021/11/24 07:37:38;;;;;;;0.00;0.00;;;;;;;;;;5067809;28;20039;-86
2021/11/24 07:40:05;;;;;;;0.20;0.20;;;;;;;;;;5067652;28;20047;-86
2021/11/24 07:42:31;;;;;;;0.35;0.35;;;;;;;;;;5066351;28;20036;-86
2021/11/24 07:44:57;;;;;;;0.50;0.50;;;;;;;;;;5067608;28;20047;-85
2021/11/24 07:47:23;;;;;;;0.50;0.30;;;;;;;;;;5064934;28;20040;-86
2021/11/24 07:49:49;;;;;;;0.00;0.00;;;;;;;;;;5065157;28;20052;-88
2021/11/24 07:52:16;;;;;;;0.20;0.20;;;;;;;;;;5070892;28;20051;-87
2021/11/24 07:54:42;;;;;;;0.10;0.10;;;;;;;;;;5067892;28;20025;-86
2021/11/24 07:57:08;;;;;;;0.00;0.00;;;;;;;;;;5064564;28;20127;-89
2021/11/24 07:59:37;;;;;;;2.03;0.30;;;;;;;;;;5068157;28;20039;-89
2021/11/24 08:02:04;;;;;;;0.00;0.00;;;;;;;;;;5060564;28;20039;-88
2021/11/24 08:04:30;;;;;;;0.15;0.15;;;;;;;;;;5075571;28;20063;-87
2021/11/24 08:07:01;;;;;;;0.10;0.10;;;;;;;;;;5065613;28;20425;-86
2021/11/24 08:09:27;;;;;;;0.00;0.00;;;;;;;;;;5067096;28;20056;-87
2021/11/24 08:11:54;;;;;;;1.58;0.77;;;;;;;;;;5066636;28;20031;-87
2021/11/24 08:14:20;;;;;;;0.20;0.20;;;;;;;;;;5064649;28;20031;-87
2021/11/24 08:16:46;;;;;;;1.07;0.70;;;;;;;;;;5071350;28;20032;-87
2021/11/24 08:19:12;;;;;;;1.08;0.95;;;;;;;;;;5068654;28;20036;-87
2021/11/24 08:21:38;;;;;;;0.00;0.00;;;;;;;;;;5066550;28;20950;-87
2021/11/24 08:24:04;;;;;;;0.00;0.00;;;;;;;;;;5067317;28;20680;-89
2021/11/24 08:26:30;;;;;;;0.13;0.13;;;;;;;;;;5065721;28;20813;-87
2021/11/24 08:28:56;;;;;;;0.50;0.50;;;;;;;;;;5061832;28;20043;-87
2021/11/24 08:31:23;;;;;;;0.03;0.03;;;;;;;;;;5067653;28;20387;-87
2021/11/24 08:33:49;;;;;;;0.30;0.30;;;;;;;;;;5065363;28;20035;-87
2021/11/24 08:36:15;;;;;;;0.10;0.10;;;;;;;;;;5064390;28;20362;-87
2021/11/24 08:38:42;;;;;;;0.50;0.20;;;;;;;;;;5067407;28;20688;-86
2021/11/24 08:41:11;;;;;;;0.50;0.22;;;;;;;;;;5062745;28;20032;-87
2021/11/24 08:43:37;;;;;;;1.85;0.30;;;;;;;;;;5066623;28;20501;-87
2021/11/24 08:46:03;;;;;;;0.10;0.10;;;;;;;;;;5066778;28;20033;-88
2021/11/24 08:48:29;;;;;;;7.00;0.98;;;;;;;;;;5066637;28;20032;-88
2021/11/24 08:50:55;;;;;;;0.00;0.00;;;;;;;;;;5069462;28;20046;-88
2021/11/24 08:53:22;;;;;;;0.20;0.20;;;;;;;;;;5078141;28;20107;-87
2021/11/24 08:55:48;;;;;;;1.52;1.05;;;;;;;;;;5064810;28;20669;-87
2021/11/24 08:58:15;;;;;;;0.00;0.00;;;;;;;;;;5066481;28;20047;-87
2021/11/24 09:00:41;;;;;;;0.20;0.20;;;;;;;;;;5073302;28;20028;-87
2021/11/24 09:03:09;;;;;;;0.00;0.00;;;;;;;;;;5073682;28;20036;-87
2021/11/24 09:05:35;;;;;;;0.10;0.10;;;;;;;;;;5065967;28;20100;-87
2021/11/24 09:08:02;;;;;;;0.10;0.10;;;;;;;;;;5075766;28;20048;-87
2021/11/24 09:10:29;;;;;;;0.93;0.45;;;;;;;;;;5066601;28;20031;-88
2021/11/24 09:12:55;;;;;;;;;;;;;;;;;;5075778;28;20032;-88
2021/11/24 09:15:21;;;;;;;0.30;0.30;;;;;;;;;;5072452;28;19920;-87
2021/11/24 09:17:47;;;;;;;0.13;0.13;;;;;;;;;;5063786;28;20032;-86
2021/11/24 09:20:14;;;;;;;0.07;0.07;;;;;;;;;;5067191;28;20024;-88
2021/11/24 09:22:43;;;;;;;0.00;0.00;;;;;;;;;;5066422;28;20033;-87
2021/11/24 09:25:11;;;;;;;0.30;0.30;;;;;;;;;;5067772;28;20082;-87
2021/11/24 09:27:47;;;;;;;41.20;1.13;;;;;;;;;;5073235;28;20146;-87
2021/11/24 09:30:13;;;;;;;0.00;0.00;;;;;;;;;;5073603;28;20221;-87
2021/11/24 09:32:41;;;;;;;0.10;0.10;;;;;;;;;;5063978;28;20024;-87
2021/11/24 09:35:08;;;;;;;0.10;0.10;;;;;;;;;;5062342;28;20025;-88
2021/11/24 09:37:35;;;;;;;0.13;0.13;;;;;;;;;;5067650;28;20035;-88
2021/11/24 09:40:01;;;;;;;0.30;0.30;;;;;;;;;;5066622;28;20143;-88
2021/11/24 09:42:28;;;;;;;0.00;0.00;;;;;;;;;;5068092;28;20028;-88
2021/11/24 09:44:56;;;;;;;0.85;0.50;;;;;;;;;;5076810;28;20020;-88
2021/11/24 09:47:22;;;;;;;0.05;0.05;;;;;;;;;;5080848;28;20115;-87
2021/11/24 09:49:49;;;;;;;0.00;0.00;;;;;;;;;;5069302;28;20114;-89
2021/11/24 09:52:18;;;;;;;0.25;0.25;;;;;;;;;;5070975;28;20716;-87
2021/11/24 09:54:47;;;;;;;0.10;0.10;;;;;;;;;;5077738;28;20446;-88
2021/11/24 09:57:13;;;;;;;0.08;0.08;;;;;;;;;;5075450;28;20107;-88
2021/11/24 09:59:39;;;;;;;1.27;0.80;;;;;;;;;;5065991;28;20032;-89
2021/11/24 10:02:05;;;;;;;0.10;0.10;;;;;;;;;;5082236;28;20020;-87
2021/11/24 10:04:32;;;;;;;0.20;0.20;;;;;;;;;;5088514;28;20500;-88
2021/11/24 10:06:58;;;;;;;0.10;0.10;;;;;;;;;;5081108;28;20087;-88
2021/11/24 10:09:24;;;;;;;1.35;1.00;;;;;;;;;;5075211;28;20029;-87
2021/11/24 10:11:50;;;;;;;0.00;0.00;;;;;;;;;;5069532;28;20034;-87
2021/11/24 10:14:16;;;;;;;0.00;0.00;;;;;;;;;;5064539;28;20064;-88
2021/11/24 10:16:42;;;;;;;0.10;0.10;;;;;;;;;;5069018;28;20505;-87
2021/11/24 10:19:09;;;;;;;0.20;0.20;;;;;;;;;;5068839;28;20036;-87
2021/11/24 10:21:52;;;;;;;0.03;0.03;;;;;;;;;;5066591;28;20036;-88
2021/11/24 10:24:26;;;;;;;0.15;0.15;;;;;;;;;;5074238;28;20103;-89
2021/11/24 10:26:53;;;;;;;0.20;0.20;;;;;;;;;;5069744;28;20054;-87
2021/11/24 10:29:19;;;;;;;0.32;0.32;;;;;;;;;;5068658;28;20120;-88
2021/11/24 10:31:45;;;;;;;0.20;0.20;;;;;;;;;;5068842;28;20028;-89
2021/11/24 10:34:38;;;;;;;0.30;0.30;;;;;;;;;;5069223;28;20451;-88
2021/11/24 10:37:08;;;;;;;0.00;0.00;;;;;;;;;;5067397;28;20037;-87
2021/11/24 10:39:39;;;;;;;0.40;0.40;;;;;;;;;;5078006;28;20035;-87
2021/11/24 10:42:07;;;;;;;0.10;0.10;;;;;;;;;;5080853;28;20051;-87
2021/11/24 10:44:35;;;;;;;0.10;0.10;;;;;;;;;;5080957;28;20047;-88
2021/11/24 10:47:01;;;;;;;0.30;0.30;;;;;;;;;;5063879;28;20032;-87
2021/11/24 10:49:32;;;;;;;0.20;0.20;;;;;;;;;;5071014;28;20443;-88
2021/11/24 10:51:58;;;;;;;0.10;0.10;;;;;;;;;;5067246;28;20041;-87
2021/11/24 10:54:24;;;;;;;0.20;0.20;;;;;;;;;;5068185;28;20162;-87
2021/11/24 10:57:01;;;;;;;0.10;0.10;;;;;;;;;;5068277;28;20292;-87
2021/11/24 10:59:27;;;;;;;0.10;0.10;;;;;;;;;;5064822;28;20073;-86
2021/11/24 11:02:13;;;;;;;0.20;0.20;;;;;;;;;;5082204;28;20047;-86
2021/11/24 11:04:56;;;;;;;0.30;0.30;;;;;;;;;;5079159;28;20468;-87
2021/11/24 11:07:22;;;;;;;0.30;0.30;;;;;;;;;;5084527;28;20049;-87
2021/11/24 11:09:48;;;;;;;0.20;0.20;;;;;;;;;;5070096;28;20459;-89
2021/11/24 11:12:15;;;;;;;0.20;0.20;;;;;;;;;;5067885;28;20048;-88
2021/11/24 11:14:42;;;;;;;0.20;0.20;;;;;;;;;;5066691;28;20035;-87
2021/11/24 11:17:09;;;;;;;0.30;0.30;;;;;;;;;;5063211;28;20098;-88
2021/11/24 11:19:52;;;;;;;0.28;0.28;;;;;;;;;;5070361;28;20449;-88
2021/11/24 11:22:20;;;;;;;0.10;0.10;;;;;;;;;;5083718;28;20047;-88
2021/11/24 11:24:46;;;;;;;0.20;0.20;;;;;;;;;;5078602;28;20031;-88
2021/11/24 11:27:13;;;;;;;0.10;0.10;;;;;;;;;;5074183;28;20559;-86
2021/11/24 11:29:42;;;;;;;0.00;0.00;;;;;;;;;;5066651;28;20032;-87
2021/11/24 11:32:08;;;;;;;0.00;0.00;;;;;;;;;;5064412;28;20037;-87
2021/11/24 11:34:37;;;;;;;0.10;0.10;;;;;;;;;;5070052;28;20039;-87
2021/11/24 11:37:04;;;;;;;0.10;0.10;;;;;;;;;;5069381;28;20043;-87
2021/11/24 11:39:30;;;;;;;0.10;0.10;;;;;;;;;;5068242;28;20036;-87
2021/11/24 11:41:56;;;;;;;0.10;0.10;;;;;;;;;;5067986;28;20036;-87
2021/11/24 11:44:23;;;;;;;0.00;0.00;;;;;;;;;;5065649;28;20321;-88
2021/11/24 11:46:51;;;;;;;0.00;0.00;;;;;;;;;;5065144;28;20040;-87
2021/11/24 11:49:21;;;;;;;0.08;0.08;;;;;;;;;;5066841;28;20040;-87
2021/11/24 11:51:48;;;;;;;0.00;0.00;;;;;;;;;;5048433;28;20051;-87
2021/11/24 11:54:25;;;;;;;0.00;0.00;;;;;;;;;;5056988;28;20468;-87
2021/11/24 11:56:51;;;;;;;0.10;0.10;;;;;;;;;;5050735;28;20025;-87
2021/11/24 11:59:19;;;;;;;0.10;0.10;;;;;;;;;;5051468;28;20789;-87
2021/11/24 12:01:45;;;;;;;0.10;0.10;;;;;;;;;;5065020;28;20046;-87
2021/11/24 12:04:21;;;;;;;0.20;0.20;;;;;;;;;;5068042;28;20449;-88
2021/11/24 12:06:50;;;;;;;0.20;0.20;;;;;;;;;;5066838;28;20036;-87
2021/11/24 12:09:16;;;;;;;0.10;0.10;;;;;;;;;;5069456;28;20294;-88
2021/11/24 12:14:46;;;;;;;0.20;0.20;;;;;;;;;;5077310;28;20429;-88
2021/11/24 12:17:31;;;;;;;0.28;0.28;;;;;;;;;;5049909;28;20111;-87
2021/11/24 12:19:59;;;;;;;0.20;0.20;;;;;;;;;;5063585;28;20873;-87
2021/11/24 12:22:44;;;;;;;0.20;0.20;;;;;;;;;;5080078;28;20036;-87
2021/11/24 12:25:20;;;;;;;0.20;0.20;;;;;;;;;;5060791;28;20406;-87
2021/11/24 12:28:06;;;;;;;0.20;0.20;;;;;;;;;;5063206;28;20169;-87
2021/11/24 12:33:20;;;;;;;0.20;0.20;;;;;;;;;;5066891;28;20458;-88
2021/11/24 12:35:46;;;;;;;0.20;0.20;;;;;;;;;;5066721;28;20073;-87
2021/11/24 12:38:12;;;;;;;0.20;0.20;;;;;;;;;;5063271;28;20024;-88
2021/11/24 12:40:41;;;;;;;0.10;0.10;;;;;;;;;;5065887;28;20035;-86
2021/11/24 12:43:12;;;;;;;0.10;0.10;;;;;;;;;;5049734;28;20048;-87
2021/11/24 12:45:39;;;;;;;0.10;0.10;;;;;;;;;;5063924;28;20085;-87
2021/11/24 12:48:07;;;;;;;0.08;0.08;;;;;;;;;;5066773;28;20063;-88
2021/11/24 12:50:35;;;;;;;0.00;0.00;;;;;;;;;;5066507;28;20015;-87
2021/11/24 12:53:03;;;;;;;0.10;0.10;;;;;;;;;;5060016;28;20133;-87
2021/11/24 12:55:30;;;;;;;0.10;0.10;;;;;;;;;;5068930;28;20178;-88
2021/11/24 12:57:56;;;;;;;0.00;0.00;;;;;;;;;;5067240;28;20055;-88
2021/11/24 13:00:27;;;;;;;0.10;0.10;;;;;;;;;;5070312;28;20042;-86
2021/11/24 13:02:53;;;;;;;0.10;0.10;;;;;;;;;;5078886;28;20039;-87
2021/11/24 13:05:19;;;;;;;0.20;0.20;;;;;;;;;;5078239;28;20568;-86
2021/11/24 13:07:51;;;;;;;0.20;0.20;;;;;;;;;;5064477;28;20075;-88
2021/11/24 13:10:18;;;;;;;0.20;0.20;;;;;;;;;;5066988;28;20029;-88
2021/11/24 13:12:44;;;;;;;0.20;0.20;;;;;;;;;;5057862;28;20025;-88
2021/11/24 13:15:10;;;;;;;0.20;0.20;;;;;;;;;;5059478;28;20159;-88
2021/11/24 13:17:39;;;;;;;0.13;0.13;;;;;;;;;;5066052;28;20039;-89
2021/11/24 13:20:10;;;;;;;0.20;0.20;;;;;;;;;;5077408;28;20074;-88
2021/11/24 13:22:38;;;;;;;0.20;0.20;;;;;;;;;;5075779;28;20054;-88
2021/11/24 13:25:08;;;;;;;0.20;0.20;;;;;;;;;;5068328;28;20512;-88
2021/11/24 13:27:53;;;;;;;0.20;0.20;;;;;;;;;;5065216;28;20040;-88
2021/11/24 13:30:27;;;;;;;0.20;0.20;;;;;;;;;;5066239;28;20032;-88
2021/11/24 13:32:56;;;;;;;0.20;0.20;;;;;;;;;;5066211;28;20426;-89
2021/11/24 13:35:23;;;;;;;0.20;0.20;;;;;;;;;;5062344;28;20039;-88
2021/11/24 13:37:50;;;;;;;0.20;0.20;;;;;;;;;;5064711;28;20111;-88
2021/11/24 13:40:30;;;;;;;0.10;0.10;;;;;;;;;;5059290;28;20041;-88
2021/11/24 13:42:56;;;;;;;0.10;0.10;;;;;;;;;;5063486;28;20118;-87
2021/11/24 13:45:33;;;;;;;0.10;0.10;;;;;;;;;;5072071;28;20577;-88
2021/11/24 13:48:09;;;;;;;0.10;0.10;;;;;;;;;;5075009;28;20528;-88
2021/11/24 13:50:36;;;;;;;0.08;0.08;;;;;;;;;;5065435;28;20853;-88
2021/11/24 13:53:21;;;;;;;0.10;0.10;;;;;;;;;;5061776;28;20472;-88
2021/11/24 13:55:47;;;;;;;0.00;0.00;;;;;;;;;;5045773;28;20021;-88
2021/11/24 13:58:13;;;;;;;0.10;0.10;;;;;;;;;;5066723;28;20462;-88
2021/11/24 14:00:40;;;;;;;0.10;0.10;;;;;;;;;;5065634;28;20021;-89
2021/11/24 14:03:06;;;;;;;0.10;0.10;;;;;;;;;;5047597;28;20081;-88
2021/11/24 14:05:35;;;;;;;0.10;0.10;;;;;;;;;;5053705;28;20035;-88
2021/11/24 14:08:01;;;;;;;0.10;0.10;;;;;;;;;;5062484;28;20124;-87
2021/11/24 14:10:29;;;;;;;0.10;0.10;;;;;;;;;;5049493;28;20068;-88
2021/11/24 14:12:57;;;;;;;1999.90;999.90;;;;;;;;;;5049021;28;20144;-87
2021/11/24 14:15:27;;;;;;;385.80;57.38;;;;;;;;;;5053759;28;20036;-87
2021/11/24 14:17:57;;;;;;;32.28;30.65;;;;;;;;;;5053436;28;20517;-87
2021/11/24 14:20:23;;;;;;;1999.90;999.90;;;;;;;;;;5049939;28;20033;-89
2021/11/24 14:22:54;;;;;;;414.70;48.60;;;;;;;;;;5047586;28;20049;-88
2021/11/24 14:25:25;;;;;;;1999.90;999.90;;;;;;;;;;5048590;28;20029;-88
2021/11/24 14:27:51;;;;;;;1999.90;999.90;;;;;;;;;;5048197;28;20040;-89
2021/11/24 14:30:19;;;;;;;1.75;1.75;;;;;;;;;;5050015;28;20064;-88
2021/11/24 14:32:46;;;;;;;1999.90;999.90;;;;;;;;;;5048585;28;20047;-88
2021/11/24 14:35:11;;;;;;;;;;;;;;;;;;5047194;28;20052;-89
2021/11/24 14:37:39;;;;;;;1999.90;999.90;;;;;;;;;;5050996;28;19909;-87
2021/11/24 14:40:06;;;;;;;0.68;0.68;;;;;;;;;;5058073;28;20733;-87
2021/11/24 14:42:32;;;;;;;0.20;0.20;;;;;;;;;;5054251;28;20288;-86
2021/11/24 14:44:58;;;;;;;0.10;0.10;;;;;;;;;;5053748;28;20041;-86
2021/11/24 14:47:25;;;;;;;0.20;0.20;;;;;;;;;;5049890;28;20033;-87